Terminal Aerodrome Forecast
Issued by NWS

Home | Current Version | Previous Version | Text Only | Print | Product List | Glossary On
Versions: 1 2 3 4 5 6 7 8 9 10 11 12 13 14
000
FTUS43 KGRB 041720
TAFATW
TAF
KATW 041720Z 0418/0518 31009KT P6SM SCT045 BKN080
     FM042300 04007KT P6SM SCT040 SCT080
     FM050100 05004KT P6SM FEW080
     FM051200 09005KT P6SM SCT080=

USA.gov is the U.S. government's official web portal to all federal, state and local government web resources and services.